createdAt,value
2017-12-16T00:01:13.205Z,17.02
2017-12-16T00:02:12.653Z,3.60
2017-12-16T00:03:42.657Z,14.27
2017-12-16T00:04:45.737Z,4.17
2017-12-16T00:06:16.650Z,10.07
2017-12-16T00:07:17.012Z,4.17
2017-12-16T00:08:52.355Z,7.65
2017-12-16T00:09:48.986Z,3.10
2017-12-16T00:11:26.710Z,5.32
2017-12-16T00:12:20.873Z,3.97
2017-12-16T00:13:56.344Z,4.20
2017-12-16T00:14:53.574Z,3.83
2017-12-16T00:16:25.029Z,3.28
2017-12-16T00:17:27.339Z,3.90
2017-12-16T00:18:54.616Z,3.45
2017-12-16T00:20:05.835Z,3.80
2017-12-16T00:21:24.147Z,3.47
2017-12-16T00:22:39.862Z,4.07
2017-12-16T00:23:52.815Z,3.30
2017-12-16T00:25:15.635Z,4.07
2017-12-16T00:26:25.607Z,3.55
2017-12-16T00:27:47.789Z,4.10
2017-12-16T00:28:54.295Z,3.25
2017-12-16T00:30:20.333Z,3.53
2017-12-16T00:31:22.999Z,5.70
2017-12-16T00:32:52.842Z,3.93
2017-12-16T00:33:52.461Z,4.40
2017-12-16T00:35:24.890Z,4.00
2017-12-16T00:36:25.084Z,4.10
2017-12-16T00:37:56.954Z,4.00
2017-12-16T00:38:54.907Z,4.60
2017-12-16T00:40:29.868Z,4.30
2017-12-16T00:41:29.914Z,4.65
2017-12-16T00:43:03.552Z,3.83
2017-12-16T00:45:35.908Z,3.60
2017-12-16T00:48:08.200Z,4.07
2017-12-16T00:50:39.669Z,3.60
2017-12-16T00:53:13.131Z,4.70
2017-12-16T00:55:48.280Z,4.27
2017-12-16T00:58:23.520Z,4.50
2017-12-16T01:00:56.612Z,4.37
2017-12-16T01:03:28.882Z,4.50
2017-12-16T01:06:01.213Z,4.60
2017-12-16T01:08:33.928Z,4.67
2017-12-16T01:11:06.330Z,4.70
2017-12-16T01:13:40.128Z,4.60
2017-12-16T01:16:13.286Z,4.60
2017-12-16T01:18:46.182Z,4.50
2017-12-16T01:21:18.727Z,4.53
2017-12-16T01:23:50.279Z,4.20
2017-12-16T01:26:23.527Z,4.37
2017-12-16T01:28:55.033Z,4.47
2017-12-16T01:31:27.834Z,4.23
2017-12-16T01:38:17.014Z,3.80
2017-12-16T01:40:51.195Z,3.70
2017-12-16T01:43:24.275Z,3.40
2017-12-16T01:45:56.050Z,3.77
2017-12-16T01:48:28.699Z,3.70
2017-12-16T01:51:00.801Z,3.77
2017-12-16T01:53:32.227Z,3.37
2017-12-16T01:56:03.578Z,3.80
2017-12-16T01:58:34.568Z,3.37
2017-12-16T02:01:07.885Z,3.97
2017-12-16T02:03:39.938Z,3.40
2017-12-16T02:06:11.332Z,3.30
2017-12-16T02:08:43.980Z,3.70
2017-12-16T02:11:14.970Z,3.60
2017-12-16T02:13:46.256Z,3.07
2017-12-16T02:16:18.867Z,3.80
2017-12-16T02:18:51.403Z,3.33
2017-12-16T15:42:19.155Z,17.95
2017-12-16T15:44:51.211Z,14.10
2017-12-16T15:47:31.937Z,13.90
2017-12-16T15:50:09.327Z,13.48
2017-12-16T15:52:38.175Z,14.27
2017-12-16T15:55:20.610Z,13.23
2017-12-16T15:57:50.263Z,13.00
2017-12-16T16:00:29.824Z,13.73
2017-12-16T16:02:58.632Z,12.07
2017-12-16T16:05:27.452Z,13.70
2017-12-16T16:07:57.549Z,13.52
2017-12-16T16:10:36.660Z,13.18
2017-12-16T16:13:06.539Z,13.25
2017-12-16T16:15:35.283Z,14.82
2017-12-16T16:18:03.952Z,14.45
2017-12-16T16:20:46.312Z,11.80
2017-12-16T16:23:16.858Z,12.77
2017-12-16T16:32:12.199Z,10.18
2017-12-16T16:34:40.913Z,12.52
2017-12-16T16:37:17.651Z,11.32
2017-12-16T16:39:54.756Z,11.75
2017-12-16T16:42:28.607Z,11.15
2017-12-16T16:44:57.306Z,11.48
2017-12-16T16:47:26.895Z,12.13
2017-12-16T16:50:02.671Z,12.15
2017-12-16T16:52:37.743Z,12.65
2017-12-16T16:55:07.206Z,11.60
2017-12-16T16:57:41.808Z,12.55
2017-12-16T17:00:12.470Z,11.52
2017-12-16T17:02:41.151Z,10.65
2017-12-16T17:05:11.776Z,10.23
2017-12-16T17:07:40.463Z,11.40
2017-12-16T17:13:23.762Z,11.15
2017-12-16T17:16:19.386Z,12.50
2017-12-16T17:22:14.952Z,15.48
2017-12-16T17:24:59.918Z,17.73
2017-12-16T17:27:31.422Z,11.38
2017-12-16T17:30:27.669Z,11.43
2017-12-16T17:33:04.579Z,12.37
2017-12-16T17:35:48.587Z,15.60
2017-12-16T17:41:02.000Z,9.50
2017-12-16T17:55:46.177Z,9.60
2017-12-16T18:04:05.442Z,9.25
2017-12-16T18:06:34.615Z,8.60
2017-12-16T18:09:04.771Z,10.02
2017-12-16T18:11:33.453Z,8.75
2017-12-16T18:14:02.911Z,9.30
2017-12-16T18:16:33.536Z,9.15
2017-12-16T18:19:02.218Z,9.30
2017-12-16T18:21:31.896Z,10.60
2017-12-16T18:24:01.539Z,11.15
2017-12-16T18:26:40.360Z,11.10
2017-12-16T18:29:10.992Z,10.30
2017-12-16T18:31:39.695Z,10.75
2017-12-16T18:34:09.287Z,10.38
2017-12-16T18:36:37.976Z,9.88
2017-12-16T18:39:06.724Z,11.40
2017-12-16T18:41:41.609Z,9.93
2017-12-16T18:44:10.292Z,10.95
2017-12-16T18:46:45.242Z,10.05
2017-12-16T18:49:14.743Z,10.68
2017-12-16T18:51:44.220Z,10.10
2017-12-16T18:54:12.927Z,11.25
2017-12-16T18:56:41.613Z,11.15
2017-12-16T18:59:10.331Z,10.85
2017-12-16T19:01:45.087Z,10.63
2017-12-16T19:04:13.822Z,10.27
2017-12-16T19:06:43.318Z,10.15
2017-12-16T19:09:11.991Z,9.45
2017-12-16T19:11:42.653Z,9.02
2017-12-16T19:14:11.359Z,9.25
2017-12-16T19:16:46.230Z,10.10
2017-12-16T19:19:20.775Z,11.12
2017-12-16T19:21:49.448Z,8.57
2017-12-16T19:24:18.136Z,10.48
2017-12-16T19:26:52.712Z,9.10
2017-12-16T19:29:25.519Z,9.70
2017-12-16T19:31:54.198Z,8.60
2017-12-16T19:34:22.875Z,9.43
2017-12-16T19:36:52.506Z,9.60
2017-12-16T19:39:21.200Z,9.50
2017-12-16T19:41:49.904Z,9.73
2017-12-16T19:44:18.592Z,9.65
2017-12-16T19:46:53.653Z,10.48
2017-12-16T19:49:22.385Z,10.90
2017-12-16T19:51:57.807Z,9.43
2017-12-16T19:54:26.548Z,10.10
2017-12-16T19:56:55.264Z,9.88
2017-12-16T19:59:30.212Z,9.77
2017-12-16T20:01:59.944Z,10.70
2017-12-16T20:04:29.623Z,9.98
2017-12-16T20:06:58.321Z,10.65
2017-12-16T20:09:27.867Z,10.85
2017-12-16T20:11:56.556Z,11.07
2017-12-16T20:14:25.251Z,10.25
2017-12-16T20:16:53.976Z,10.48
2017-12-16T20:19:28.902Z,10.50
2017-12-16T20:21:57.640Z,11.02
2017-12-16T20:24:26.322Z,11.15
2017-12-16T20:27:01.285Z,10.30
2017-12-16T20:29:29.921Z,10.63
2017-12-16T20:31:58.617Z,10.15
2017-12-16T20:34:28.303Z,10.93
2017-12-16T20:37:03.184Z,10.63
2017-12-16T20:39:32.755Z,11.25
2017-12-16T20:42:07.707Z,10.93
2017-12-16T20:44:36.400Z,10.55
2017-12-16T20:47:06.071Z,10.82
2017-12-16T20:49:34.824Z,10.00
2017-12-16T20:52:03.494Z,11.07
2017-12-16T20:54:32.955Z,10.38
2017-12-16T20:57:02.492Z,10.57
2017-12-16T20:59:37.347Z,10.77
2017-12-16T21:02:06.030Z,10.95
2017-12-16T21:04:34.719Z,11.52
2017-12-16T21:07:09.600Z,10.38
2017-12-16T21:09:44.446Z,11.02
2017-12-16T21:12:13.129Z,11.60
2017-12-16T21:14:41.799Z,10.48
2017-12-16T21:17:11.161Z,10.27
2017-12-16T21:19:46.011Z,11.57
2017-12-16T21:22:20.941Z,11.80
2017-12-16T21:24:57.832Z,11.55
2017-12-16T21:27:32.649Z,10.95
2017-12-16T21:30:01.675Z,10.32
2017-12-16T21:32:31.330Z,10.68
2017-12-16T21:35:00.004Z,10.80
2017-12-16T21:37:28.708Z,10.00
2017-12-16T21:39:57.395Z,12.05
2017-12-16T21:42:26.103Z,12.02
2017-12-16T21:44:55.623Z,10.75
2017-12-16T21:47:24.361Z,9.88
2017-12-16T21:49:53.074Z,11.12
2017-12-16T21:52:21.754Z,10.70
2017-12-16T21:54:52.207Z,10.20
2017-12-16T21:57:20.891Z,9.88
2017-12-16T21:59:52.640Z,9.32
2017-12-16T22:02:21.324Z,10.05
2017-12-16T22:04:56.850Z,9.60
2017-12-16T22:07:25.531Z,10.80
2017-12-16T22:09:54.244Z,10.30
2017-12-16T22:12:22.934Z,10.90
2017-12-16T22:14:51.606Z,10.27
2017-12-16T22:17:20.288Z,9.57
2017-12-16T22:19:49.007Z,10.63
2017-12-16T22:22:17.683Z,9.80
2017-12-16T22:24:46.374Z,9.13
2017-12-16T22:27:15.047Z,8.30
2017-12-16T22:29:47.406Z,9.07
2017-12-16T22:32:16.075Z,8.38
2017-12-16T22:34:44.763Z,9.23
2017-12-16T22:37:13.453Z,9.35
2017-12-16T22:39:42.152Z,9.38
2017-12-16T22:42:12.023Z,9.98
2017-12-16T22:44:46.843Z,10.45
2017-12-16T22:47:15.499Z,9.32
2017-12-16T22:49:51.468Z,9.20
2017-12-16T22:52:20.155Z,10.32
2017-12-16T22:54:48.843Z,10.45
2017-12-16T22:57:17.520Z,8.98
2017-12-16T22:59:46.200Z,10.65
2017-12-16T23:02:14.880Z,9.68
2017-12-16T23:04:45.566Z,9.75
2017-12-16T23:07:20.376Z,9.55
2017-12-16T23:09:49.819Z,9.93
2017-12-16T23:12:24.752Z,9.30
2017-12-16T23:14:53.426Z,9.07
2017-12-16T23:17:28.366Z,9.23
2017-12-16T23:19:57.053Z,8.68
2017-12-16T23:22:26.663Z,8.80
2017-12-16T23:24:55.342Z,8.63
2017-12-16T23:27:28.132Z,8.20
2017-12-16T23:29:59.906Z,9.38
2017-12-16T23:32:37.615Z,8.20
2017-12-16T23:35:12.626Z,7.78
2017-12-16T23:37:53.677Z,7.65
2017-12-16T23:40:24.941Z,7.85
2017-12-16T23:42:56.015Z,7.20
2017-12-16T23:45:27.784Z,7.80
2017-12-16T23:47:57.458Z,8.77
2017-12-16T23:50:28.494Z,7.62
2017-12-16T23:52:57.882Z,8.10
2017-12-16T23:55:27.752Z,7.78
2017-12-16T23:57:57.800Z,7.60
